Aérodrome :
LOGIN :

S'inscrire | Disclaimer

   EN    FR    IT 

 










Légende :    VFR   VFR Marginal   IFR   IFR Intensif   IFR Très Intensif
Visi : 
Plafond : 
>= 8 km
>= 3000ft
5 à 8 km
1000 à 3000 ft
1500m à 5 km
500 à 1000 ft
800 à 1500m
200 à 500 ft
< 800m
< 200 ft
Symboles :   Orages  Brouillard  Fortes neiges  Fortes précipitations  Vent > 20 kt
SIGMETs :   Divers  Orages  Givrage  Turbulence  Onde Orograph.  Cendres Volcan.







- Altitude de l'aérodrome : 202 ft
- Code IATA : LGW
- Voir les cartes d'approche


EGKK - London Gatwick

DERNIER METAR :
  • 181220Z 11005KT 080V170 7000 -SHRA FEW018 SCT038 15/15 Q1014

METARs EXPIRÉS :
  • 181150Z VRB03KT 8000 -SHRA FEW021 SCT035 15/14 Q1014 RESHRA
  • 181120Z 18003KT CAVOK 16/13 Q1014
  • 181050Z VRB03KT 9999 -RA FEW016 16/13 Q1015
  • 181020Z 24007KT 200V280 9999 -RA FEW023 BKN045 16/13 Q1015
  • 180950Z 23005KT 180V270 9999 SCT042 18/11 Q1015

TAF TAF EGKK
Valide du 18 à 12h jusqu'au 19 à 18h UTC


181057Z 1812/1918 VRB03KT 9999 FEW040
TEMPO 1812/1914 5000 RA SHRA
PROB30
TEMPO 1901/1908 VRB15G25KT 3000 +SHRA TSRA BKN010 BKN045CB
PROB30
TEMPO 1908/1910 BKN010
BECMG 1912/1915 27012KT
Pas de NOTAMs connus pour ce terrain.
1 SIGMET publié pour la FIR London (EGTT) :
 
Orages noyés dans la masse
EGTT SIGMET 02 VALID 181036/181300 EGRR
EGTT LONDON FIR EMBD TS FCST WI N5132 W00014 - N5115 E00028 - N5020 W00038 - N5034 W00121 - N5132 W00014 TOP FL300 MOV NNE 20KT NC=



MET'MAP, la Météo Aéronautique d'un coup d'oeil ! - Copyright ORBIFLY Décembre 2007 - Disclaimer

ORBIFLY MET'MAP TEAM :

Programmation & Développement : Alexandra Zaïnal
Conception & Développement : Baudouin d'Aumeries
Co-Programmation & Développement : Marc-Olivier Méhu
Soutien technique & logistique : Manuel Goepfert

Contact : metmap@orbifly.com




SOURCES & CREDITS :

   NOAA